sensor_id;sensor_type;location;lat;lon;timestamp;pressure;altitude;pressure_sealevel;temperature;humidity
804;BME280;25687;49.976;8.240;2022-11-15T00:02:04;99778.22;;;6.85;100.00
804;BME280;25687;49.976;8.240;2022-11-15T00:04:29;99778.63;;;6.94;100.00
804;BME280;25687;49.976;8.240;2022-11-15T00:06:55;99785.00;;;7.05;100.00
804;BME280;25687;49.976;8.240;2022-11-15T00:09:20;99779.19;;;7.01;100.00
804;BME280;25687;49.976;8.240;2022-11-15T00:11:45;99775.06;;;6.99;100.00
804;BME280;25687;49.976;8.240;2022-11-15T00:14:10;99775.75;;;7.02;100.00
804;BME280;25687;49.976;8.240;2022-11-15T00:16:36;99781.69;;;7.03;100.00
804;BME280;25687;49.976;8.240;2022-11-15T00:19:02;99782.25;;;7.09;100.00
804;BME280;25687;49.976;8.240;2022-11-15T00:21:27;99773.25;;;7.20;100.00
804;BME280;25687;49.976;8.240;2022-11-15T00:23:52;99772.75;;;7.31;100.00
804;BME280;25687;49.976;8.240;2022-11-15T00:26:17;99765.13;;;7.29;100.00
804;BME280;25687;49.976;8.240;2022-11-15T00:28:43;99762.94;;;7.21;100.00
804;BME280;25687;49.976;8.240;2022-11-15T00:31:11;99764.19;;;7.13;100.00
804;BME280;25687;49.976;8.240;2022-11-15T00:33:37;99758.59;;;7.23;100.00
804;BME280;25687;49.976;8.240;2022-11-15T00:36:04;99751.53;;;7.29;100.00
804;BME280;25687;49.976;8.240;2022-11-15T00:38:34;99753.34;;;7.44;100.00
804;BME280;25687;49.976;8.240;2022-11-15T00:41:02;99744.66;;;7.48;100.00
804;BME280;25687;49.976;8.240;2022-11-15T00:43:28;99745.00;;;7.40;100.00
804;BME280;25687;49.976;8.240;2022-11-15T00:45:54;99749.50;;;7.35;100.00
804;BME280;25687;49.976;8.240;2022-11-15T00:48:19;99753.69;;;7.19;100.00
804;BME280;25687;49.976;8.240;2022-11-15T00:50:44;99754.50;;;7.19;100.00
804;BME280;25687;49.976;8.240;2022-11-15T00:53:10;99747.91;;;7.33;100.00
804;BME280;25687;49.976;8.240;2022-11-15T00:55:35;99747.34;;;7.45;100.00
804;BME280;25687;49.976;8.240;2022-11-15T00:58:00;99751.25;;;7.35;100.00
804;BME280;25687;49.976;8.240;2022-11-15T01:00:26;99741.19;;;7.49;100.00
804;BME280;25687;49.976;8.240;2022-11-15T01:02:51;99745.09;;;7.56;100.00
804;BME280;25687;49.976;8.240;2022-11-15T01:05:16;99736.69;;;7.54;100.00
804;BME280;25687;49.976;8.240;2022-11-15T01:07:42;99745.19;;;7.55;100.00
804;BME280;25687;49.976;8.240;2022-11-15T01:10:07;99749.25;;;7.59;100.00
804;BME280;25687;49.976;8.240;2022-11-15T01:12:33;99742.25;;;7.63;100.00
804;BME280;25687;49.976;8.240;2022-11-15T01:14:58;99731.47;;;7.19;100.00
804;BME280;25687;49.976;8.240;2022-11-15T01:17:24;99737.69;;;7.33;100.00
804;BME280;25687;49.976;8.240;2022-11-15T01:19:49;99733.41;;;7.33;100.00
804;BME280;25687;49.976;8.240;2022-11-15T01:22:15;99741.13;;;7.32;100.00
804;BME280;25687;49.976;8.240;2022-11-15T01:24:40;99738.56;;;7.32;100.00
804;BME280;25687;49.976;8.240;2022-11-15T01:27:06;99742.19;;;7.27;100.00
804;BME280;25687;49.976;8.240;2022-11-15T01:29:31;99738.69;;;7.11;100.00
804;BME280;25687;49.976;8.240;2022-11-15T01:31:56;99737.78;;;7.12;100.00
804;BME280;25687;49.976;8.240;2022-11-15T01:34:22;99731.56;;;6.99;100.00
804;BME280;25687;49.976;8.240;2022-11-15T01:36:47;99724.16;;;7.11;100.00
804;BME280;25687;49.976;8.240;2022-11-15T01:39:12;99730.81;;;7.16;100.00
804;BME280;25687;49.976;8.240;2022-11-15T01:41:37;99722.53;;;7.28;100.00
804;BME280;25687;49.976;8.240;2022-11-15T01:47:01;99727.59;;;7.30;100.00
804;BME280;25687;49.976;8.240;2022-11-15T01:49:30;99719.06;;;7.48;100.00
804;BME280;25687;49.976;8.240;2022-11-15T01:51:58;99716.88;;;7.21;100.00
804;BME280;25687;49.976;8.240;2022-11-15T01:54:24;99713.72;;;7.16;100.00
804;BME280;25687;49.976;8.240;2022-11-15T01:56:53;99716.06;;;7.21;100.00
804;BME280;25687;49.976;8.240;2022-11-15T01:59:21;99701.75;;;7.17;100.00
804;BME280;25687;49.976;8.240;2022-11-15T02:01:47;99704.59;;;7.10;100.00
804;BME280;25687;49.976;8.240;2022-11-15T02:04:32;99695.91;;;7.15;100.00
804;BME280;25687;49.976;8.240;2022-11-15T02:07:02;99696.06;;;7.29;100.00
804;BME280;25687;49.976;8.240;2022-11-15T02:09:29;99693.56;;;7.27;100.00
804;BME280;25687;49.976;8.240;2022-11-15T02:11:55;99692.97;;;7.22;100.00
804;BME280;25687;49.976;8.240;2022-11-15T02:14:21;99691.88;;;7.09;100.00
804;BME280;25687;49.976;8.240;2022-11-15T02:19:53;99696.63;;;6.80;100.00
804;BME280;25687;49.976;8.240;2022-11-15T02:22:42;99701.44;;;6.86;100.00
804;BME280;25687;49.976;8.240;2022-11-15T02:31:25;99685.94;;;7.08;100.00
804;BME280;25687;49.976;8.240;2022-11-15T02:34:02;99680.22;;;7.03;100.00
804;BME280;25687;49.976;8.240;2022-11-15T02:36:40;99676.81;;;7.22;100.00
804;BME280;25687;49.976;8.240;2022-11-15T02:40:23;99678.50;;;7.04;100.00
804;BME280;25687;49.976;8.240;2022-11-15T02:42:24;99679.59;;;6.98;100.00
804;BME280;25687;49.976;8.240;2022-11-15T02:45:32;99675.28;;;7.18;100.00
804;BME280;25687;49.976;8.240;2022-11-15T02:48:01;99673.56;;;7.18;100.00
804;BME280;25687;49.976;8.240;2022-11-15T02:50:30;99666.59;;;7.03;100.00
804;BME280;25687;49.976;8.240;2022-11-15T02:52:57;99665.09;;;6.99;100.00
804;BME280;25687;49.976;8.240;2022-11-15T02:55:36;99658.53;;;6.93;100.00
804;BME280;25687;49.976;8.240;2022-11-15T03:00:58;99661.69;;;6.98;100.00
804;BME280;25687;49.976;8.240;2022-11-15T03:09:01;99669.03;;;6.87;100.00
804;BME280;25687;49.976;8.240;2022-11-15T03:11:29;99666.84;;;6.79;100.00
804;BME280;25687;49.976;8.240;2022-11-15T03:14:02;99666.75;;;6.81;100.00
804;BME280;25687;49.976;8.240;2022-11-15T03:16:37;99667.03;;;6.74;100.00
804;BME280;25687;49.976;8.240;2022-11-15T03:19:09;99663.84;;;6.88;100.00
804;BME280;25687;49.976;8.240;2022-11-15T03:21:38;99663.97;;;7.04;100.00
804;BME280;25687;49.976;8.240;2022-11-15T03:24:06;99657.16;;;7.22;100.00
804;BME280;25687;49.976;8.240;2022-11-15T03:26:34;99661.09;;;7.30;100.00
804;BME280;25687;49.976;8.240;2022-11-15T03:29:11;99666.34;;;7.26;100.00
804;BME280;25687;49.976;8.240;2022-11-15T03:31:42;99655.69;;;7.17;100.00
804;BME280;25687;49.976;8.240;2022-11-15T03:37:01;99653.22;;;7.15;100.00
804;BME280;25687;49.976;8.240;2022-11-15T03:39:28;99659.41;;;7.29;100.00
804;BME280;25687;49.976;8.240;2022-11-15T03:42:06;99651.66;;;7.13;100.00
804;BME280;25687;49.976;8.240;2022-11-15T03:47:51;99652.88;;;7.40;100.00
804;BME280;25687;49.976;8.240;2022-11-15T03:49:57;99657.34;;;7.54;100.00
804;BME280;25687;49.976;8.240;2022-11-15T03:52:24;99663.34;;;7.53;100.00
804;BME280;25687;49.976;8.240;2022-11-15T03:54:55;99670.25;;;7.34;100.00
804;BME280;25687;49.976;8.240;2022-11-15T03:57:20;99661.09;;;7.47;100.00
804;BME280;25687;49.976;8.240;2022-11-15T03:59:46;99663.34;;;7.53;100.00
804;BME280;25687;49.976;8.240;2022-11-15T04:02:13;99661.84;;;7.67;100.00
804;BME280;25687;49.976;8.240;2022-11-15T04:04:39;99668.94;;;7.62;100.00
804;BME280;25687;49.976;8.240;2022-11-15T04:07:04;99665.81;;;7.72;100.00
804;BME280;25687;49.976;8.240;2022-11-15T04:09:29;99669.16;;;7.57;100.00
804;BME280;25687;49.976;8.240;2022-11-15T04:11:54;99662.28;;;7.57;100.00
804;BME280;25687;49.976;8.240;2022-11-15T04:14:20;99668.69;;;7.66;100.00
804;BME280;25687;49.976;8.240;2022-11-15T04:16:45;99663.81;;;7.79;100.00
804;BME280;25687;49.976;8.240;2022-11-15T04:19:10;99668.06;;;7.96;100.00
804;BME280;25687;49.976;8.240;2022-11-15T04:21:54;99658.13;;;8.07;100.00
804;BME280;25687;49.976;8.240;2022-11-15T04:24:38;99654.59;;;8.26;100.00
804;BME280;25687;49.976;8.240;2022-11-15T04:27:03;99651.53;;;8.35;100.00
804;BME280;25687;49.976;8.240;2022-11-15T04:29:28;99644.53;;;8.39;100.00
804;BME280;25687;49.976;8.240;2022-11-15T04:32:01;99640.22;;;8.39;100.00
804;BME280;25687;49.976;8.240;2022-11-15T04:34:27;99631.53;;;8.42;100.00
804;BME280;25687;49.976;8.240;2022-11-15T04:36:52;99631.97;;;8.01;100.00
804;BME280;25687;49.976;8.240;2022-11-15T04:39:36;99628.94;;;8.10;100.00
804;BME280;25687;49.976;8.240;2022-11-15T04:42:02;99623.53;;;7.99;100.00
804;BME280;25687;49.976;8.240;2022-11-15T04:44:27;99634.69;;;7.98;100.00
804;BME280;25687;49.976;8.240;2022-11-15T04:46:52;99629.84;;;8.09;100.00
804;BME280;25687;49.976;8.240;2022-11-15T04:49:18;99624.91;;;8.22;100.00
804;BME280;25687;49.976;8.240;2022-11-15T04:51:44;99618.31;;;8.34;100.00
804;BME280;25687;49.976;8.240;2022-11-15T04:54:09;99625.63;;;8.58;100.00
804;BME280;25687;49.976;8.240;2022-11-15T04:56:34;99618.84;;;8.72;100.00
804;BME280;25687;49.976;8.240;2022-11-15T04:59:00;99611.50;;;8.66;100.00
804;BME280;25687;49.976;8.240;2022-11-15T05:01:25;99604.03;;;8.62;100.00
804;BME280;25687;49.976;8.240;2022-11-15T05:03:50;99593.78;;;8.62;100.00
804;BME280;25687;49.976;8.240;2022-11-15T05:06:34;99594.34;;;8.67;100.00
804;BME280;25687;49.976;8.240;2022-11-15T05:08:59;99584.50;;;8.91;100.00
804;BME280;25687;49.976;8.240;2022-11-15T05:11:25;99580.94;;;8.78;100.00
804;BME280;25687;49.976;8.240;2022-11-15T05:13:51;99581.41;;;9.00;100.00
804;BME280;25687;49.976;8.240;2022-11-15T05:16:17;99578.41;;;9.08;100.00
804;BME280;25687;49.976;8.240;2022-11-15T05:18:42;99572.63;;;9.04;100.00
804;BME280;25687;49.976;8.240;2022-11-15T05:21:13;99583.00;;;9.03;100.00
804;BME280;25687;49.976;8.240;2022-11-15T05:23:39;99586.53;;;9.00;100.00
804;BME280;25687;49.976;8.240;2022-11-15T05:26:06;99588.75;;;9.07;100.00
804;BME280;25687;49.976;8.240;2022-11-15T05:28:33;99580.34;;;9.04;100.00
804;BME280;25687;49.976;8.240;2022-11-15T05:33:27;99575.28;;;9.03;100.00
804;BME280;25687;49.976;8.240;2022-11-15T05:36:00;99588.53;;;8.95;100.00
804;BME280;25687;49.976;8.240;2022-11-15T05:38:28;99589.25;;;9.13;100.00
804;BME280;25687;49.976;8.240;2022-11-15T05:40:54;99587.84;;;9.08;100.00
804;BME280;25687;49.976;8.240;2022-11-15T05:43:19;99580.91;;;9.10;100.00
804;BME280;25687;49.976;8.240;2022-11-15T05:45:45;99579.34;;;9.07;100.00
804;BME280;25687;49.976;8.240;2022-11-15T05:48:10;99583.06;;;9.01;100.00
804;BME280;25687;49.976;8.240;2022-11-15T05:50:38;99584.28;;;9.10;100.00
804;BME280;25687;49.976;8.240;2022-11-15T05:53:06;99587.34;;;9.17;100.00
804;BME280;25687;49.976;8.240;2022-11-15T05:55:32;99587.84;;;9.38;100.00
804;BME280;25687;49.976;8.240;2022-11-15T05:57:58;99587.59;;;9.43;100.00
804;BME280;25687;49.976;8.240;2022-11-15T06:00:23;99585.47;;;9.49;100.00
804;BME280;25687;49.976;8.240;2022-11-15T06:02:48;99587.94;;;9.51;100.00
804;BME280;25687;49.976;8.240;2022-11-15T06:05:14;99588.66;;;9.39;100.00
804;BME280;25687;49.976;8.240;2022-11-15T06:07:39;99585.31;;;9.22;100.00
804;BME280;25687;49.976;8.240;2022-11-15T06:10:05;99584.13;;;9.13;100.00
804;BME280;25687;49.976;8.240;2022-11-15T06:12:30;99582.22;;;9.31;100.00
804;BME280;25687;49.976;8.240;2022-11-15T06:14:56;99585.72;;;9.30;100.00
804;BME280;25687;49.976;8.240;2022-11-15T06:17:21;99594.78;;;9.36;100.00
804;BME280;25687;49.976;8.240;2022-11-15T06:19:46;99590.75;;;9.32;100.00
804;BME280;25687;49.976;8.240;2022-11-15T06:22:11;99591.78;;;9.29;100.00
804;BME280;25687;49.976;8.240;2022-11-15T06:24:37;99593.44;;;9.30;100.00
804;BME280;25687;49.976;8.240;2022-11-15T06:27:02;99589.16;;;9.15;100.00
804;BME280;25687;49.976;8.240;2022-11-15T06:29:27;99587.34;;;9.17;100.00
804;BME280;25687;49.976;8.240;2022-11-15T06:31:53;99585.03;;;9.12;100.00
804;BME280;25687;49.976;8.240;2022-11-15T06:34:18;99593.88;;;9.07;100.00
804;BME280;25687;49.976;8.240;2022-11-15T06:36:43;99597.53;;;9.02;100.00
804;BME280;25687;49.976;8.240;2022-11-15T06:39:09;99594.97;;;9.02;100.00
804;BME280;25687;49.976;8.240;2022-11-15T06:41:35;99596.22;;;8.95;100.00
804;BME280;25687;49.976;8.240;2022-11-15T06:44:01;99593.97;;;9.05;100.00
804;BME280;25687;49.976;8.240;2022-11-15T06:46:27;99600.84;;;9.04;100.00
804;BME280;25687;49.976;8.240;2022-11-15T06:48:52;99599.00;;;9.07;100.00
804;BME280;25687;49.976;8.240;2022-11-15T06:51:18;99599.00;;;9.07;100.00
804;BME280;25687;49.976;8.240;2022-11-15T06:53:44;99596.28;;;9.10;100.00
804;BME280;25687;49.976;8.240;2022-11-15T06:56:09;99604.38;;;9.18;100.00
804;BME280;25687;49.976;8.240;2022-11-15T06:58:35;99605.75;;;9.24;100.00
804;BME280;25687;49.976;8.240;2022-11-15T07:01:06;99591.72;;;9.15;100.00
804;BME280;25687;49.976;8.240;2022-11-15T07:03:34;99594.59;;;9.25;100.00
804;BME280;25687;49.976;8.240;2022-11-15T07:06:00;99591.47;;;9.19;100.00
804;BME280;25687;49.976;8.240;2022-11-15T07:08:27;99592.25;;;9.06;100.00
804;BME280;25687;49.976;8.240;2022-11-15T07:10:58;99599.19;;;9.03;100.00
804;BME280;25687;49.976;8.240;2022-11-15T07:13:26;99598.41;;;8.87;100.00
804;BME280;25687;49.976;8.240;2022-11-15T07:15:51;99599.63;;;8.96;100.00
804;BME280;25687;49.976;8.240;2022-11-15T07:18:16;99596.50;;;9.21;100.00
804;BME280;25687;49.976;8.240;2022-11-15T07:20:44;99601.28;;;9.27;100.00
804;BME280;25687;49.976;8.240;2022-11-15T07:23:10;99595.84;;;9.62;100.00
804;BME280;25687;49.976;8.240;2022-11-15T07:25:35;99607.41;;;9.55;100.00
804;BME280;25687;49.976;8.240;2022-11-15T07:28:01;99599.53;;;9.73;100.00
804;BME280;25687;49.976;8.240;2022-11-15T07:30:26;99607.25;;;9.87;100.00
804;BME280;25687;49.976;8.240;2022-11-15T07:32:56;99602.19;;;9.71;100.00
804;BME280;25687;49.976;8.240;2022-11-15T07:35:22;99604.03;;;9.69;100.00
804;BME280;25687;49.976;8.240;2022-11-15T07:37:58;99605.81;;;9.52;100.00
804;BME280;25687;49.976;8.240;2022-11-15T07:40:26;99604.19;;;9.66;100.00
804;BME280;25687;49.976;8.240;2022-11-15T07:42:51;99606.34;;;9.74;100.00
804;BME280;25687;49.976;8.240;2022-11-15T07:45:21;99601.72;;;9.93;100.00
804;BME280;25687;49.976;8.240;2022-11-15T07:47:49;99614.03;;;10.02;100.00
804;BME280;25687;49.976;8.240;2022-11-15T07:50:15;99601.53;;;10.11;100.00
804;BME280;25687;49.976;8.240;2022-11-15T07:52:41;99603.19;;;10.26;100.00
804;BME280;25687;49.976;8.240;2022-11-15T07:55:06;99604.38;;;10.35;100.00
804;BME280;25687;49.976;8.240;2022-11-15T07:57:32;99605.41;;;10.47;100.00
804;BME280;25687;49.976;8.240;2022-11-15T07:59:57;99609.97;;;10.42;100.00
804;BME280;25687;49.976;8.240;2022-11-15T08:02:22;99605.94;;;10.38;100.00
804;BME280;25687;49.976;8.240;2022-11-15T08:04:47;99602.63;;;10.50;100.00
804;BME280;25687;49.976;8.240;2022-11-15T08:07:13;99598.97;;;10.25;100.00
804;BME280;25687;49.976;8.240;2022-11-15T08:09:38;99596.59;;;10.37;100.00
804;BME280;25687;49.976;8.240;2022-11-15T08:12:04;99597.22;;;10.40;100.00
804;BME280;25687;49.976;8.240;2022-11-15T08:14:29;99601.16;;;10.46;100.00
804;BME280;25687;49.976;8.240;2022-11-15T08:16:55;99592.44;;;10.34;100.00
804;BME280;25687;49.976;8.240;2022-11-15T08:19:20;99595.66;;;10.23;100.00
804;BME280;25687;49.976;8.240;2022-11-15T08:21:45;99595.97;;;10.04;100.00
804;BME280;25687;49.976;8.240;2022-11-15T08:24:11;99592.47;;;10.20;100.00
804;BME280;25687;49.976;8.240;2022-11-15T08:26:39;99595.97;;;10.04;100.00
804;BME280;25687;49.976;8.240;2022-11-15T08:29:05;99601.16;;;10.17;100.00
804;BME280;25687;49.976;8.240;2022-11-15T08:31:31;99592.63;;;10.31;100.00
804;BME280;25687;49.976;8.240;2022-11-15T08:33:56;99585.28;;;10.39;100.00
804;BME280;25687;49.976;8.240;2022-11-15T08:36:22;99592.06;;;10.55;100.00
804;BME280;25687;49.976;8.240;2022-11-15T08:38:47;99591.47;;;10.64;100.00
804;BME280;25687;49.976;8.240;2022-11-15T08:41:33;99587.81;;;10.68;100.00
804;BME280;25687;49.976;8.240;2022-11-15T08:43:59;99591.84;;;10.85;100.00
804;BME280;25687;49.976;8.240;2022-11-15T08:46:24;99597.56;;;10.90;100.00
804;BME280;25687;49.976;8.240;2022-11-15T08:48:50;99585.25;;;10.81;100.00
804;BME280;25687;49.976;8.240;2022-11-15T08:51:15;99589.44;;;10.96;100.00
804;BME280;25687;49.976;8.240;2022-11-15T08:53:41;99600.94;;;10.91;100.00
804;BME280;25687;49.976;8.240;2022-11-15T08:56:08;99589.56;;;11.08;100.00
804;BME280;25687;49.976;8.240;2022-11-15T08:58:34;99585.69;;;11.28;100.00
804;BME280;25687;49.976;8.240;2022-11-15T09:01:00;99587.63;;;11.11;100.00
804;BME280;25687;49.976;8.240;2022-11-15T09:03:25;99579.69;;;11.27;100.00
804;BME280;25687;49.976;8.240;2022-11-15T09:05:58;99579.63;;;11.29;100.00
804;BME280;25687;49.976;8.240;2022-11-15T09:08:25;99577.03;;;11.42;100.00
804;BME280;25687;49.976;8.240;2022-11-15T09:10:50;99570.16;;;11.55;100.00
804;BME280;25687;49.976;8.240;2022-11-15T09:13:16;99575.50;;;11.52;100.00
804;BME280;25687;49.976;8.240;2022-11-15T09:15:41;99566.53;;;11.58;100.00
804;BME280;25687;49.976;8.240;2022-11-15T09:18:07;99570.44;;;11.76;100.00
804;BME280;25687;49.976;8.240;2022-11-15T09:20:32;99564.81;;;11.97;100.00
804;BME280;25687;49.976;8.240;2022-11-15T09:23:02;99565.81;;;12.07;100.00
804;BME280;25687;49.976;8.240;2022-11-15T09:25:28;99568.19;;;11.98;100.00
804;BME280;25687;49.976;8.240;2022-11-15T09:27:54;99565.56;;;12.10;100.00
804;BME280;25687;49.976;8.240;2022-11-15T09:30:19;99569.94;;;11.71;100.00
804;BME280;25687;49.976;8.240;2022-11-15T09:32:47;99566.84;;;11.53;100.00
804;BME280;25687;49.976;8.240;2022-11-15T09:35:12;99567.47;;;11.57;100.00
804;BME280;25687;49.976;8.240;2022-11-15T09:37:38;99561.41;;;11.45;100.00
804;BME280;25687;49.976;8.240;2022-11-15T09:40:03;99567.47;;;11.57;100.00
804;BME280;25687;49.976;8.240;2022-11-15T09:42:41;99567.06;;;11.63;100.00
804;BME280;25687;49.976;8.240;2022-11-15T09:45:23;99562.13;;;11.60;100.00
804;BME280;25687;49.976;8.240;2022-11-15T09:50:31;99549.41;;;11.83;100.00
804;BME280;25687;49.976;8.240;2022-11-15T09:52:58;99550.97;;;11.98;100.00
804;BME280;25687;49.976;8.240;2022-11-15T09:55:39;99549.59;;;12.05;100.00
804;BME280;25687;49.976;8.240;2022-11-15T09:58:24;99556.63;;;11.90;100.00
804;BME280;25687;49.976;8.240;2022-11-15T10:00:51;99565.81;;;11.94;100.00
804;BME280;25687;49.976;8.240;2022-11-15T10:03:33;99562.41;;;11.68;100.00
804;BME280;25687;49.976;8.240;2022-11-15T10:06:01;99562.28;;;12.08;100.00
804;BME280;25687;49.976;8.240;2022-11-15T10:08:53;99559.06;;;12.18;100.00
804;BME280;25687;49.976;8.240;2022-11-15T10:11:22;99548.91;;;12.40;100.00
804;BME280;25687;49.976;8.240;2022-11-15T10:13:50;99555.75;;;12.29;100.00
804;BME280;25687;49.976;8.240;2022-11-15T10:24:34;99534.78;;;12.82;100.00
804;BME280;25687;49.976;8.240;2022-11-15T10:27:00;99537.19;;;13.07;100.00
804;BME280;25687;49.976;8.240;2022-11-15T10:29:25;99530.53;;;13.28;100.00
804;BME280;25687;49.976;8.240;2022-11-15T10:31:51;99526.19;;;13.17;100.00
804;BME280;25687;49.976;8.240;2022-11-15T10:34:23;99522.97;;;13.02;100.00
804;BME280;25687;49.976;8.240;2022-11-15T10:36:59;99521.28;;;12.54;100.00
804;BME280;25687;49.976;8.240;2022-11-15T10:39:26;99518.97;;;12.86;100.00
804;BME280;25687;49.976;8.240;2022-11-15T10:41:52;99504.84;;;13.15;100.00
804;BME280;25687;49.976;8.240;2022-11-15T10:44:24;99501.06;;;13.19;100.00
804;BME280;25687;49.976;8.240;2022-11-15T10:47:05;99495.94;;;12.83;100.00
804;BME280;25687;49.976;8.240;2022-11-15T10:49:33;99486.03;;;13.13;100.00
804;BME280;25687;49.976;8.240;2022-11-15T10:54:41;99472.78;;;13.29;100.00
804;BME280;25687;49.976;8.240;2022-11-15T10:57:13;99461.84;;;13.02;100.00
804;BME280;25687;49.976;8.240;2022-11-15T10:59:44;99462.97;;;12.87;100.00
804;BME280;25687;49.976;8.240;2022-11-15T11:02:27;99461.47;;;12.49;100.00
804;BME280;25687;49.976;8.240;2022-11-15T11:04:53;99453.84;;;12.94;100.00
804;BME280;25687;49.976;8.240;2022-11-15T11:07:31;99446.13;;;13.05;100.00
804;BME280;25687;49.976;8.240;2022-11-15T11:12:32;99438.03;;;13.10;100.00
804;BME280;25687;49.976;8.240;2022-11-15T11:14:59;99438.22;;;12.73;100.00
804;BME280;25687;49.976;8.240;2022-11-15T11:20:39;99430.19;;;12.65;100.00
804;BME280;25687;49.976;8.240;2022-11-15T11:31:37;99418.19;;;12.52;100.00
804;BME280;25687;49.976;8.240;2022-11-15T11:34:17;99425.88;;;12.65;100.00
804;BME280;25687;49.976;8.240;2022-11-15T11:37:11;99427.31;;;12.92;100.00
804;BME280;25687;49.976;8.240;2022-11-15T11:40:40;99420.28;;;13.05;100.00
804;BME280;25687;49.976;8.240;2022-11-15T11:43:26;99415.72;;;12.98;100.00
804;BME280;25687;49.976;8.240;2022-11-15T11:46:09;99419.66;;;12.32;100.00
804;BME280;25687;49.976;8.240;2022-11-15T11:48:47;99416.50;;;12.64;100.00
804;BME280;25687;49.976;8.240;2022-11-15T11:51:36;99414.72;;;12.29;100.00
804;BME280;25687;49.976;8.240;2022-11-15T11:56:36;99403.06;;;12.48;100.00
804;BME280;25687;49.976;8.240;2022-11-15T11:59:21;99395.91;;;12.51;100.00
804;BME280;25687;49.976;8.240;2022-11-15T12:01:51;99397.41;;;12.42;100.00
804;BME280;25687;49.976;8.240;2022-11-15T12:04:25;99401.19;;;11.90;100.00
804;BME280;25687;49.976;8.240;2022-11-15T12:07:12;99398.59;;;11.90;100.00
804;BME280;25687;49.976;8.240;2022-11-15T12:17:34;99378.25;;;12.22;100.00
804;BME280;25687;49.976;8.240;2022-11-15T12:20:13;99371.69;;;12.18;100.00
804;BME280;25687;49.976;8.240;2022-11-15T12:22:46;99372.69;;;12.51;100.00
804;BME280;25687;49.976;8.240;2022-11-15T12:25:21;99371.72;;;12.88;100.00
804;BME280;25687;49.976;8.240;2022-11-15T12:30:55;99356.34;;;12.86;100.00
804;BME280;25687;49.976;8.240;2022-11-15T12:33:43;99349.66;;;12.95;100.00
804;BME280;25687;49.976;8.240;2022-11-15T12:38:51;99351.75;;;12.67;100.00
804;BME280;25687;49.976;8.240;2022-11-15T12:41:26;99346.56;;;12.67;100.00
804;BME280;25687;49.976;8.240;2022-11-15T12:43:52;99339.41;;;12.59;100.00
804;BME280;25687;49.976;8.240;2022-11-15T12:48:57;99336.25;;;12.45;100.00
804;BME280;25687;49.976;8.240;2022-11-15T12:59:55;99319.00;;;12.56;100.00
804;BME280;25687;49.976;8.240;2022-11-15T13:02:40;99318.31;;;12.66;100.00
804;BME280;25687;49.976;8.240;2022-11-15T13:12:54;99301.97;;;12.20;100.00
804;BME280;25687;49.976;8.240;2022-11-15T13:17:55;99295.13;;;12.07;100.00
804;BME280;25687;49.976;8.240;2022-11-15T13:20:25;99286.00;;;12.03;100.00
804;BME280;25687;49.976;8.240;2022-11-15T13:30:35;99281.53;;;12.17;100.00
804;BME280;25687;49.976;8.240;2022-11-15T13:33:14;99275.31;;;12.08;100.00
804;BME280;25687;49.976;8.240;2022-11-15T13:35:41;99273.84;;;12.28;100.00
804;BME280;25687;49.976;8.240;2022-11-15T13:38:27;99274.06;;;12.25;100.00
804;BME280;25687;49.976;8.240;2022-11-15T13:40:53;99273.28;;;12.47;100.00
804;BME280;25687;49.976;8.240;2022-11-15T13:46:11;99255.69;;;12.64;100.00
804;BME280;25687;49.976;8.240;2022-11-15T13:48:44;99259.09;;;12.53;100.00
804;BME280;25687;49.976;8.240;2022-11-15T13:53:55;99234.22;;;12.29;100.00
804;BME280;25687;49.976;8.240;2022-11-15T13:56:22;99238.09;;;12.35;100.00
804;BME280;25687;49.976;8.240;2022-11-15T13:58:47;99227.66;;;12.48;100.00
804;BME280;25687;49.976;8.240;2022-11-15T14:01:18;99225.91;;;12.37;100.00
804;BME280;25687;49.976;8.240;2022-11-15T14:04:03;99225.31;;;12.22;100.00
804;BME280;25687;49.976;8.240;2022-11-15T14:06:30;99224.22;;;12.02;100.00
804;BME280;25687;49.976;8.240;2022-11-15T14:09:02;99230.25;;;11.89;100.00
804;BME280;25687;49.976;8.240;2022-11-15T14:11:27;99230.22;;;12.14;100.00
804;BME280;25687;49.976;8.240;2022-11-15T14:14:23;99228.50;;;12.37;100.00
804;BME280;25687;49.976;8.240;2022-11-15T14:16:51;99220.38;;;12.41;100.00
804;BME280;25687;49.976;8.240;2022-11-15T14:19:38;99221.81;;;12.34;100.00
804;BME280;25687;49.976;8.240;2022-11-15T14:22:33;99212.19;;;12.25;100.00
804;BME280;25687;49.976;8.240;2022-11-15T14:25:07;99204.69;;;12.33;100.00
804;BME280;25687;49.976;8.240;2022-11-15T14:27:39;99203.03;;;12.09;100.00
804;BME280;25687;49.976;8.240;2022-11-15T14:30:05;99197.44;;;12.27;100.00
804;BME280;25687;49.976;8.240;2022-11-15T14:35:12;99182.06;;;12.14;100.00
804;BME280;25687;49.976;8.240;2022-11-15T14:37:39;99180.66;;;12.21;100.00
804;BME280;25687;49.976;8.240;2022-11-15T14:40:05;99176.69;;;12.17;100.00
804;BME280;25687;49.976;8.240;2022-11-15T14:42:31;99179.38;;;12.38;100.00
804;BME280;25687;49.976;8.240;2022-11-15T14:44:57;99173.75;;;12.33;100.00
804;BME280;25687;49.976;8.240;2022-11-15T14:47:22;99158.97;;;12.35;100.00
804;BME280;25687;49.976;8.240;2022-11-15T14:49:48;99155.47;;;12.14;100.00
804;BME280;25687;49.976;8.240;2022-11-15T14:54:51;99148.78;;;12.11;100.00
804;BME280;25687;49.976;8.240;2022-11-15T14:57:34;99143.72;;;11.98;100.00
804;BME280;25687;49.976;8.240;2022-11-15T14:59:59;99142.22;;;12.07;100.00
804;BME280;25687;49.976;8.240;2022-11-15T15:02:26;99133.66;;;12.18;100.00
804;BME280;25687;49.976;8.240;2022-11-15T15:04:52;99139.66;;;12.30;100.00
804;BME280;25687;49.976;8.240;2022-11-15T15:07:18;99134.69;;;11.92;100.00
804;BME280;25687;49.976;8.240;2022-11-15T15:09:44;99127.47;;;11.98;100.00
804;BME280;25687;49.976;8.240;2022-11-15T15:12:21;99125.31;;;11.91;100.00
804;BME280;25687;49.976;8.240;2022-11-15T15:14:50;99122.31;;;11.98;100.00
804;BME280;25687;49.976;8.240;2022-11-15T15:17:16;99121.50;;;12.08;100.00
804;BME280;25687;49.976;8.240;2022-11-15T15:19:42;99113.81;;;11.95;100.00
804;BME280;25687;49.976;8.240;2022-11-15T15:22:15;99120.63;;;11.85;100.00